Time;durP1;ratioP1;P1;durP2;ratioP2;P2;SDS_P1;SDS_P2;PMS_P1;PMS_P2;Temp;Humidity;BMP_temperature;BMP_pressure;BME280_temperature;BME280_humidity;BME280_pressure;Samples;Min_cycle;Max_cycle;Signal;HPM_P1;HPM_P2
2023/06/05 00:09:09;;;;;;;2.08;1.10;;;;;;;20.24;53.37;102128.91;20946649;28;20513;-68
2023/06/05 00:19:11;;;;;;;1.75;1.42;;;;;;;20.21;53.28;102112.94;20985218;28;20492;-68
2023/06/05 00:29:13;;;;;;;1.40;1.20;;;;;;;20.20;53.20;102122.03;20965364;28;20059;-67
2023/06/05 00:39:14;;;;;;;1.60;1.38;;;;;;;20.15;53.10;102108.88;20924299;28;20523;-67
2023/06/05 00:49:16;;;;;;;1.45;1.35;;;;;;;20.14;52.80;102107.16;20962537;28;20075;-68
2023/06/05 00:59:18;;;;;;;2.05;1.33;;;;;;;20.06;52.56;102099.66;20957443;28;20044;-67
2023/06/05 01:09:20;;;;;;;1.60;1.50;;;;;;;20.10;52.56;102097.56;20942901;28;20743;-68
2023/06/05 01:19:24;;;;;;;2.20;1.70;;;;;;;20.08;52.46;102103.09;20931766;28;20166;-67
2023/06/05 01:29:36;;;;;;;1.90;1.80;;;;;;;20.06;52.56;102093.38;20944174;28;20079;-68
2023/06/05 01:39:39;;;;;;;1.55;1.25;;;;;;;20.01;52.24;102074.84;20956368;28;20040;-68
2023/06/05 01:49:41;;;;;;;1.63;1.25;;;;;;;20.07;52.00;102084.28;20941069;28;20044;-68
2023/06/05 01:59:43;;;;;;;1.50;1.40;;;;;;;20.05;51.98;102084.44;20970088;28;20453;-68
2023/06/05 02:09:44;;;;;;;1.60;1.30;;;;;;;20.04;51.78;102085.41;20950389;28;20037;-67
2023/06/05 02:19:46;;;;;;;1.30;1.20;;;;;;;19.99;51.88;102066.00;21019085;28;20045;-67
2023/06/05 02:29:48;;;;;;;2.08;1.30;;;;;;;20.01;51.68;102072.13;20989912;28;20075;-68
2023/06/05 02:39:49;;;;;;;1.85;1.40;;;;;;;20.00;51.65;102062.31;20951597;28;20040;-67
2023/06/05 02:49:51;;;;;;;2.38;1.80;;;;;;;19.99;51.48;102049.78;20968220;28;20044;-67
2023/06/05 02:59:55;;;;;;;1.50;1.25;;;;;;;19.91;51.70;102036.88;20966060;28;20049;-67
2023/06/05 03:09:57;;;;;;;1.17;1.07;;;;;;;19.98;51.63;102048.91;20952547;28;20567;-68
2023/06/05 03:19:59;;;;;;;1.50;1.40;;;;;;;19.95;51.35;102046.44;20956976;28;20048;-67
2023/06/05 03:30:01;;;;;;;1.38;1.23;;;;;;;19.92;51.60;102038.59;20962067;28;20056;-67
2023/06/05 03:40:08;;;;;;;1.20;1.10;;;;;;;19.89;51.32;102037.94;20890781;28;20486;-67
2023/06/05 03:50:12;;;;;;;1.67;1.45;;;;;;;19.86;51.35;102026.38;20918289;28;20060;-67
2023/06/05 04:00:17;;;;;;;1.65;1.45;;;;;;;19.85;51.54;102024.66;20895831;28;20262;-67
2023/06/05 04:10:30;;;;;;;1.40;1.30;;;;;;;19.83;51.50;102028.47;20913327;28;20125;-67
2023/06/05 04:20:31;;;;;;;1.50;1.27;;;;;;;19.81;51.58;102031.28;20939037;28;20120;-67
2023/06/05 04:30:34;;;;;;;2.20;1.50;;;;;;;19.80;51.88;102032.28;20934698;28;20327;-68
2023/06/05 04:40:36;;;;;;;2.05;1.38;;;;;;;19.81;51.69;102052.06;20931505;28;20048;-67
2023/06/05 04:50:38;;;;;;;1.40;1.30;;;;;;;19.80;52.14;102039.53;20940586;28;20094;-67
2023/06/05 05:00:48;;;;;;;1.95;1.40;;;;;;;19.79;52.19;102037.81;20928010;28;20040;-67
2023/06/05 05:10:51;;;;;;;1.60;1.20;;;;;;;19.79;52.46;102035.94;20942022;28;20041;-67
2023/06/05 05:20:53;;;;;;;1.98;1.35;;;;;;;19.79;52.68;102049.47;20920076;28;20529;-67
2023/06/05 05:30:57;;;;;;;1.35;1.25;;;;;;;19.79;53.06;102048.63;20929929;28;20124;-68
2023/06/05 05:40:59;;;;;;;1.80;1.33;;;;;;;19.80;53.70;102044.94;20912031;28;20072;-71
2023/06/05 05:51:01;;;;;;;0.95;0.85;;;;;;;19.82;54.37;102051.91;20913228;28;20052;-69
2023/06/05 06:01:02;;;;;;;3.05;1.25;;;;;;;19.88;54.75;102050.59;20918138;28;20785;-70
2023/06/05 06:11:06;;;;;;;1.58;1.25;;;;;;;19.94;55.23;102057.41;20885910;28;20107;-69
2023/06/05 06:21:08;;;;;;;1.80;1.30;;;;;;;20.03;55.75;102062.06;20896025;28;20084;-70
2023/06/05 06:31:11;;;;;;;1.95;1.42;;;;;;;20.09;55.80;102056.16;20951657;28;20083;-71
2023/06/05 06:41:13;;;;;;;2.45;1.20;;;;;;;20.17;55.91;102062.78;20944429;28;20049;-71
2023/06/05 06:51:15;;;;;;;1.80;1.40;;;;;;;20.19;55.83;102059.00;20944843;28;20070;-72
2023/06/05 07:01:16;;;;;;;2.65;1.20;;;;;;;20.26;56.11;102059.34;20992295;28;20059;-71
2023/06/05 07:11:18;;;;;;;1.88;1.25;;;;;;;20.29;56.07;102061.78;21013990;28;20468;-71
2023/06/05 07:21:20;;;;;;;1.10;1.00;;;;;;;20.36;56.04;102068.44;20907910;28;20045;-71
2023/06/05 07:31:22;;;;;;;1.63;1.20;;;;;;;20.50;55.74;102055.63;21051234;28;20496;-72
2023/06/05 07:41:23;;;;;;;1.60;1.30;;;;;;;20.53;55.69;102056.22;20961575;28;20045;-73
2023/06/05 07:51:26;;;;;;;1.23;1.05;;;;;;;20.52;55.81;102056.38;20950003;28;20580;-73
2023/06/05 08:01:36;;;;;;;1.45;1.10;;;;;;;20.56;55.71;102058.72;20960016;28;20079;-71
2023/06/05 08:11:38;;;;;;;3.70;1.80;;;;;;;21.15;55.43;102055.72;20942184;28;20110;-72
2023/06/05 08:21:40;;;;;;;2.47;1.88;;;;;;;22.51;52.05;102056.66;20942170;28;20111;-72
2023/06/05 08:31:42;;;;;;;4.57;1.30;;;;;;;23.06;50.68;102046.28;20982786;28;20047;-73
2023/06/05 08:41:43;;;;;;;2.33;1.13;;;;;;;23.97;48.50;102053.16;20973518;28;20052;-73
2023/06/05 08:51:46;;;;;;;3.15;1.42;;;;;;;24.60;46.94;102049.72;20950495;28;20477;-72
2023/06/05 09:01:47;;;;;;;2.30;1.58;;;;;;;24.00;47.78;102044.69;20945860;28;20048;-73
2023/06/05 09:12:05;;;;;;;3.22;1.13;;;;;;;23.14;49.45;102024.69;20936190;28;20483;-73
2023/06/05 09:22:09;;;;;;;8.85;1.65;;;;;;;22.66;50.41;102020.94;20934013;28;20087;-73
2023/06/05 09:32:21;;;;;;;1.48;1.33;;;;;;;22.39;51.25;102025.19;20935691;28;20431;-73
2023/06/05 09:42:32;;;;;;;2.22;1.30;;;;;;;22.22;51.61;102018.56;20930212;28;20519;-72
2023/06/05 09:52:36;;;;;;;4.60;1.55;;;;;;;22.13;52.18;102012.97;20934995;28;20041;-74
2023/06/05 10:02:38;;;;;;;2.42;1.50;;;;;;;22.06;52.24;102009.06;20919345;28;20041;-72
2023/06/05 10:12:40;;;;;;;3.05;1.30;;;;;;;22.02;52.20;102004.91;20946738;28;20040;-72
2023/06/05 10:22:43;;;;;;;2.58;1.40;;;;;;;21.96;52.55;101989.19;20948811;28;20075;-72
2023/06/05 10:33:10;;;;;;;1.40;1.20;;;;;;;21.91;52.44;101992.34;20965312;28;20637;-73
2023/06/05 10:43:28;;;;;;;2.60;1.42;;;;;;;21.87;53.03;101989.03;20950199;28;20059;-73
2023/06/05 10:53:46;;;;;;;1.67;1.20;;;;;;;21.88;52.98;101984.47;20946129;28;20045;-73
2023/06/05 11:04:00;;;;;;;2.22;1.00;;;;;;;21.92;53.55;101971.50;20975689;28;20076;-72
2023/06/05 11:14:03;;;;;;;2.30;1.67;;;;;;;21.96;54.42;101965.66;20968609;28;20037;-71
2023/06/05 11:24:22;;;;;;;1.67;1.35;;;;;;;21.99;55.09;101964.53;20971298;28;20052;-72
2023/06/05 11:34:25;;;;;;;1.25;1.02;;;;;;;21.98;55.50;101960.09;20952409;28;20910;-71
2023/06/05 11:44:32;;;;;;;1.40;1.00;;;;;;;21.93;55.44;101952.41;20944693;28;20390;-71
2023/06/05 11:54:40;;;;;;;1.80;1.40;;;;;;;21.99;55.33;101948.25;20947908;28;20048;-72
2023/06/05 12:04:42;;;;;;;1.83;1.20;;;;;;;21.98;55.37;101938.41;20949246;28;20040;-73
2023/06/05 12:14:44;;;;;;;2.28;1.00;;;;;;;21.97;55.14;101939.41;20937024;28;20505;-75
2023/06/05 12:24:46;;;;;;;1.33;1.23;;;;;;;21.94;54.95;101936.97;20951392;28;20139;-74
2023/06/05 12:34:51;;;;;;;1.58;1.30;;;;;;;21.93;54.87;101927.13;20949993;28;20114;-74
2023/06/05 12:45:06;;;;;;;2.25;1.75;;;;;;;21.90;54.91;101917.44;20905711;28;20959;-76
2023/06/05 12:55:09;;;;;;;2.22;1.50;;;;;;;21.88;54.90;101914.84;20936694;28;20068;-74
2023/06/05 13:05:11;;;;;;;3.90;1.55;;;;;;;21.86;55.05;101900.56;20911930;28;20052;-74
2023/06/05 13:15:13;;;;;;;2.00;1.33;;;;;;;21.84;54.97;101894.44;20930806;28;20095;-76
2023/06/05 13:25:14;;;;;;;2.00;1.50;;;;;;;21.83;55.08;101905.41;20900311;28;20136;-74
2023/06/05 13:35:16;;;;;;;3.03;1.70;;;;;;;21.78;55.04;101876.00;20957446;28;20128;-74
2023/06/05 13:45:18;;;;;;;2.75;1.50;;;;;;;21.73;55.05;101870.16;20962077;28;20399;-75
2023/06/05 13:55:19;;;;;;;1.73;1.60;;;;;;;21.69;55.10;101877.69;20949327;28;20119;-76
2023/06/05 14:05:21;;;;;;;2.65;1.60;;;;;;;21.65;55.32;101869.97;20950188;28;20129;-75
2023/06/05 14:15:23;;;;;;;2.25;1.48;;;;;;;21.62;55.10;101867.50;20950028;28;20044;-75
2023/06/05 14:25:26;;;;;;;2.80;1.52;;;;;;;21.58;55.32;101861.50;20938466;28;20443;-75
2023/06/05 14:35:29;;;;;;;2.70;1.67;;;;;;;21.58;55.94;101862.34;20899571;28;20114;-72
2023/06/05 14:45:30;;;;;;;2.50;2.08;;;;;;;21.62;58.32;101853.94;20939731;28;20102;-85
2023/06/05 14:55:33;;;;;;;7.32;3.47;;;;;;;21.73;60.74;101856.59;20909834;28;20040;-76
2023/06/05 15:05:35;;;;;;;6.85;3.00;;;;;;;21.80;61.30;101852.34;20948732;28;20041;-74
2023/06/05 15:15:37;;;;;;;3.88;2.10;;;;;;;21.82;61.42;101850.34;20923961;28;20127;-73
2023/06/05 15:25:38;;;;;;;4.32;2.25;;;;;;;21.78;61.18;101829.94;20910115;28;20071;-74
2023/06/05 15:35:42;;;;;;;4.50;2.35;;;;;;;21.76;60.81;101837.34;20945383;28;20055;-74
2023/06/05 15:45:44;;;;;;;4.07;1.90;;;;;;;21.71;61.29;101828.78;20943921;28;20064;-73
2023/06/05 15:55:46;;;;;;;3.80;1.92;;;;;;;21.65;60.86;101835.59;20929249;28;20051;-74
2023/06/05 16:05:48;;;;;;;2.95;2.00;;;;;;;21.46;60.45;101813.84;20935735;28;20072;-74
2023/06/05 16:15:51;;;;;;;3.35;1.98;;;;;;;21.56;60.70;101834.53;20922909;28;20091;-75
2023/06/05 16:25:53;;;;;;;3.63;2.15;;;;;;;21.55;60.82;101835.53;20910811;28;20045;-73
2023/06/05 16:35:57;;;;;;;3.20;1.83;;;;;;;21.53;61.34;101837.53;20905072;28;20505;-76
2023/06/05 16:45:59;;;;;;;3.67;2.33;;;;;;;21.55;61.38;101837.41;20912030;28;20041;-74
2023/06/05 16:56:01;;;;;;;4.65;2.30;;;;;;;21.54;61.73;101830.28;20936321;28;20693;-74
2023/06/05 17:06:03;;;;;;;4.85;2.08;;;;;;;21.51;61.59;101831.41;20944549;28;20037;-74
2023/06/05 17:16:06;;;;;;;3.50;2.10;;;;;;;21.50;61.49;101826.13;20919379;28;20416;-74
2023/06/05 17:26:08;;;;;;;8.50;5.20;;;;;;;21.47;61.50;101823.69;20927363;28;20117;-72
2023/06/05 17:36:11;;;;;;;6.15;3.42;;;;;;;21.40;61.52;101826.09;20945404;28;20052;-71
2023/06/05 17:46:12;;;;;;;7.07;3.58;;;;;;;21.36;61.74;101821.94;20955816;28;20049;-72
2023/06/05 17:56:14;;;;;;;5.28;3.38;;;;;;;21.30;61.59;101824.22;20967801;28;20040;-71
2023/06/05 18:06:16;;;;;;;9.48;3.75;;;;;;;21.26;61.25;101827.31;20979542;28;20052;-71
2023/06/05 18:16:17;;;;;;;4.97;3.25;;;;;;;21.17;60.86;101812.72;20950763;28;20416;-71
2023/06/05 18:26:20;;;;;;;6.28;3.50;;;;;;;21.19;60.91;101831.56;20955326;28;20053;-70
2023/06/05 18:36:21;;;;;;;5.00;3.08;;;;;;;21.17;62.78;101826.28;20986454;28;20508;-70
2023/06/05 18:46:23;;;;;;;4.72;2.92;;;;;;;21.11;62.67;101826.81;20987528;28;20044;-70
2023/06/05 18:56:26;;;;;;;4.75;3.00;;;;;;;21.10;62.44;101849.47;21060260;28;20097;-70
2023/06/05 19:06:28;;;;;;;3.80;2.92;;;;;;;21.06;62.24;101843.47;21077540;28;20056;-70
2023/06/05 19:16:31;;;;;;;3.35;2.42;;;;;;;21.03;62.19;101842.88;21059184;28;20051;-70
2023/06/05 19:26:33;;;;;;;4.03;3.15;;;;;;;21.01;61.61;101853.84;21057981;28;20052;-70
2023/06/05 19:36:35;;;;;;;3.80;2.50;;;;;;;20.98;61.18;101854.09;21056741;28;20048;-70
2023/06/05 19:46:38;;;;;;;3.53;2.60;;;;;;;20.94;61.04;101861.66;21058710;28;20496;-70
2023/06/05 19:56:40;;;;;;;2.55;2.17;;;;;;;20.91;60.52;101866.44;21073074;28;20131;-70
2023/06/05 20:06:41;;;;;;;3.45;2.30;;;;;;;20.88;60.18;101878.41;21072101;28;20056;-70
2023/06/05 20:16:43;;;;;;;3.60;2.20;;;;;;;20.84;60.18;101888.63;21053778;28;20127;-70
2023/06/05 20:26:45;;;;;;;3.05;2.40;;;;;;;20.83;59.84;101894.19;21014274;28;20072;-70
2023/06/05 20:36:46;;;;;;;2.90;1.95;;;;;;;20.80;59.66;101897.16;20964700;28;20105;-70
2023/06/05 20:46:52;;;;;;;2.72;2.15;;;;;;;20.77;59.46;101898.25;20994451;28;20079;-70
2023/06/05 20:56:54;;;;;;;2.63;1.98;;;;;;;20.76;59.30;101901.06;20965697;28;20069;-70
2023/06/05 21:06:56;;;;;;;2.67;1.98;;;;;;;20.74;59.07;101901.22;20904205;28;20556;-70
2023/06/05 21:16:57;;;;;;;2.13;1.83;;;;;;;20.75;59.01;101905.63;20970013;28;20037;-70
2023/06/05 21:26:59;;;;;;;3.35;2.28;;;;;;;20.72;58.64;101900.50;20946707;28;20147;-71
2023/06/05 21:37:01;;;;;;;2.55;2.13;;;;;;;20.70;58.50;101908.72;20945730;28;20290;-70
2023/06/05 21:47:03;;;;;;;1.95;1.65;;;;;;;20.68;58.49;101916.13;20932561;28;20571;-70
2023/06/05 21:57:04;;;;;;;2.70;1.75;;;;;;;20.66;58.20;101909.97;20952914;28;20135;-70
2023/06/05 22:07:06;;;;;;;1.45;1.33;;;;;;;20.62;58.15;101905.81;20943484;28;20070;-71
2023/06/05 22:17:08;;;;;;;1.90;1.70;;;;;;;20.61;57.79;101901.41;20958185;28;20110;-70
2023/06/05 22:27:10;;;;;;;2.67;2.10;;;;;;;20.57;57.54;101902.66;20957263;28;20061;-70
2023/06/05 22:37:13;;;;;;;1.85;1.70;;;;;;;20.56;57.47;101900.94;20952189;28;20041;-70
2023/06/05 22:47:16;;;;;;;2.00;1.75;;;;;;;20.54;57.21;101905.63;20953554;28;20084;-70
2023/06/05 22:57:18;;;;;;;1.95;1.65;;;;;;;20.51;57.06;101905.88;20951146;28;20131;-70
2023/06/05 23:07:22;;;;;;;2.70;2.38;;;;;;;20.49;57.05;101921.38;20957732;28;20041;-70
2023/06/05 23:17:24;;;;;;;3.07;2.40;;;;;;;20.41;56.90;101903.06;20967209;28;20083;-70
2023/06/05 23:27:25;;;;;;;2.30;2.10;;;;;;;20.44;56.92;101908.22;20963326;28;20967;-70
2023/06/05 23:37:27;;;;;;;3.15;2.33;;;;;;;20.40;56.81;101918.47;20969680;28;20036;-70
2023/06/05 23:47:30;;;;;;;3.70;3.20;;;;;;;20.39;56.36;101918.56;20973521;28;20079;-70
2023/06/05 23:57:36;;;;;;;4.03;3.20;;;;;;;20.38;56.53;101923.13;20966128;28;20439;-71
